JFA22R LIQS-LFLI
Flight info
| Callsign | JFA22R |
|---|---|
| Flight time | N/A |
| Altitude | 26000 |
| Route | IBRID DCT MONEB DCT AOSTA L615 BANKO Y52 SUVEL |
| Aircraft | PC12/L-SDFGRWY/S |
Departure
| Time | N/A |
|---|---|
| Airport | Siena-Ampugnano Airport (LIQS) |
Arrival
| Time | 2026-04-23 13:26 |
|---|---|
| Airport | Annemasse Airfield (LFLI) |
| Time | Latitude | Longitude | Altitude | Speed | Heading |
|---|---|---|---|---|---|
| 2026-04-23 13:03 | 45.62060 | 7.64057 | 26284 ft | 287 kts | 314° |
| 2026-04-23 13:03 | 45.63374 | 7.61863 | 26280 ft | 288 kts | 314° |
| 2026-04-23 13:03 | 45.64679 | 7.59686 | 26272 ft | 288 kts | 314° |
| 2026-04-23 13:04 | 45.65984 | 7.57504 | 26268 ft | 289 kts | 314° |
| 2026-04-23 13:04 | 45.67291 | 7.55322 | 26262 ft | 289 kts | 314° |
| 2026-04-23 13:04 | 45.68597 | 7.53134 | 26254 ft | 289 kts | 314° |
| 2026-04-23 13:04 | 45.69915 | 7.50930 | 26250 ft | 289 kts | 314° |
| 2026-04-23 13:05 | 45.71218 | 7.48742 | 26242 ft | 289 kts | 314° |
| 2026-04-23 13:05 | 45.72527 | 7.46549 | 26248 ft | 289 kts | 314° |
| 2026-04-23 13:05 | 45.73833 | 7.44360 | 26251 ft | 289 kts | 314° |
| 2026-04-23 13:05 | 45.75132 | 7.42179 | 26254 ft | 289 kts | 314° |
| 2026-04-23 13:06 | 45.77732 | 7.37805 | 26274 ft | 289 kts | 314° |
| 2026-04-23 13:06 | 45.79015 | 7.35569 | 26286 ft | 291 kts | 306° |
| 2026-04-23 13:06 | 45.79702 | 7.32849 | 26305 ft | 294 kts | 282° |
| 2026-04-23 13:07 | 45.80023 | 7.29945 | 26299 ft | 295 kts | 277° |
| 2026-04-23 13:07 | 45.80247 | 7.27275 | 26298 ft | 295 kts | 276° |
| 2026-04-23 13:07 | 45.80485 | 7.24328 | 26302 ft | 295 kts | 276° |
| 2026-04-23 13:07 | 45.80718 | 7.21431 | 26305 ft | 295 kts | 276° |
| 2026-04-23 13:08 | 45.80952 | 7.18536 | 26301 ft | 295 kts | 276° |
| 2026-04-23 13:08 | 45.81187 | 7.15604 | 26300 ft | 295 kts | 276° |
| 2026-04-23 13:08 | 45.81422 | 7.12689 | 26298 ft | 295 kts | 276° |
| 2026-04-23 13:08 | 45.81659 | 7.09755 | 26294 ft | 295 kts | 276° |
| 2026-04-23 13:09 | 45.81904 | 7.06835 | 26275 ft | 296 kts | 280° |
| 2026-04-23 13:09 | 45.82682 | 7.04152 | 26281 ft | 293 kts | 302° |
| 2026-04-23 13:09 | 45.83772 | 7.01716 | 26273 ft | 292 kts | 306° |
| 2026-04-23 13:09 | 45.84923 | 6.99295 | 26271 ft | 293 kts | 306° |
| 2026-04-23 13:10 | 45.86061 | 6.96904 | 26232 ft | 292 kts | 306° |
| 2026-04-23 13:10 | 45.87205 | 6.94498 | 26101 ft | 290 kts | 306° |
| 2026-04-23 13:10 | 45.88331 | 6.92116 | 25972 ft | 289 kts | 306° |
| 2026-04-23 13:10 | 45.89460 | 6.89726 | 25841 ft | 288 kts | 306° |
| 2026-04-23 13:11 | 45.90580 | 6.87350 | 25714 ft | 286 kts | 306° |
| 2026-04-23 13:11 | 45.91687 | 6.85002 | 25587 ft | 286 kts | 306° |
| 2026-04-23 13:11 | 45.92800 | 6.82636 | 25461 ft | 285 kts | 307° |
| 2026-04-23 13:11 | 45.93905 | 6.80288 | 25335 ft | 285 kts | 307° |
| 2026-04-23 13:12 | 45.95022 | 6.77917 | 25205 ft | 285 kts | 306° |
| 2026-04-23 13:12 | 45.96117 | 6.75585 | 25076 ft | 284 kts | 306° |
| 2026-04-23 13:12 | 45.97229 | 6.73216 | 24957 ft | 283 kts | 306° |
| 2026-04-23 13:12 | 45.98307 | 6.70922 | 24533 ft | 280 kts | 307° |
| 2026-04-23 13:13 | 45.99400 | 6.68590 | 23797 ft | 284 kts | 307° |
| 2026-04-23 13:13 | 46.00462 | 6.66325 | 22937 ft | 290 kts | 306° |
| 2026-04-23 13:13 | 46.01595 | 6.63905 | 22063 ft | 294 kts | 306° |
| 2026-04-23 13:13 | 46.02722 | 6.61493 | 21277 ft | 293 kts | 306° |
| 2026-04-23 13:14 | 46.03841 | 6.59096 | 20508 ft | 291 kts | 306° |
| 2026-04-23 13:14 | 46.04976 | 6.56663 | 19725 ft | 290 kts | 306° |
| 2026-04-23 13:14 | 46.06088 | 6.54312 | 18970 ft | 288 kts | 306° |
| 2026-04-23 13:14 | 46.07207 | 6.51944 | 18190 ft | 286 kts | 306° |
| 2026-04-23 13:15 | 46.08319 | 6.49589 | 17418 ft | 283 kts | 306° |
| 2026-04-23 13:15 | 46.09416 | 6.47269 | 16680 ft | 280 kts | 306° |
| 2026-04-23 13:15 | 46.10497 | 6.44978 | 15937 ft | 277 kts | 306° |
| 2026-04-23 13:15 | 46.11511 | 6.42834 | 15226 ft | 273 kts | 306° |
| 2026-04-23 13:16 | 46.12581 | 6.40565 | 14455 ft | 269 kts | 306° |
| 2026-04-23 13:16 | 46.13615 | 6.38369 | 13715 ft | 265 kts | 306° |
| 2026-04-23 13:16 | 46.14621 | 6.36232 | 12979 ft | 262 kts | 306° |
| 2026-04-23 13:16 | 46.15629 | 6.34125 | 12242 ft | 258 kts | 306° |
| 2026-04-23 13:17 | 46.16602 | 6.32161 | 11530 ft | 255 kts | 307° |
| 2026-04-23 13:17 | 46.17569 | 6.30039 | 10783 ft | 253 kts | 295° |
| 2026-04-23 13:17 | 46.17645 | 6.27595 | 10050 ft | 252 kts | 253° |
| 2026-04-23 13:17 | 46.16705 | 6.25633 | 9339 ft | 248 kts | 216° |
| 2026-04-23 13:18 | 46.15182 | 6.24645 | 8614 ft | 242 kts | 187° |
| 2026-04-23 13:18 | 46.13612 | 6.25125 | 7932 ft | 231 kts | 144° |
| 2026-04-23 13:18 | 46.12517 | 6.26718 | 7444 ft | 217 kts | 127° |
| 2026-04-23 13:18 | 46.11605 | 6.28385 | 6951 ft | 210 kts | 125° |
| 2026-04-23 13:19 | 46.10733 | 6.30048 | 6461 ft | 205 kts | 125° |
| 2026-04-23 13:19 | 46.09894 | 6.31668 | 5974 ft | 202 kts | 125° |
| 2026-04-23 13:19 | 46.09058 | 6.33270 | 5485 ft | 198 kts | 124° |
| 2026-04-23 13:19 | 46.08268 | 6.34871 | 4988 ft | 192 kts | 111° |
| 2026-04-23 13:20 | 46.08289 | 6.36636 | 4692 ft | 172 kts | 62° |
| 2026-04-23 13:20 | 46.09113 | 6.37688 | 4458 ft | 157 kts | 17° |
| 2026-04-23 13:20 | 46.10137 | 6.37562 | 4207 ft | 149 kts | 336° |
| 2026-04-23 13:20 | 46.10949 | 6.36685 | 3932 ft | 143 kts | 316° |
| 2026-04-23 13:21 | 46.11575 | 6.35629 | 3654 ft | 137 kts | 312° |
| 2026-04-23 13:21 | 46.12171 | 6.34562 | 3391 ft | 141 kts | 311° |
| 2026-04-23 13:21 | 46.12837 | 6.33383 | 3151 ft | 160 kts | 311° |
| 2026-04-23 13:21 | 46.13568 | 6.32099 | 2976 ft | 167 kts | 311° |
| 2026-04-23 13:22 | 46.14292 | 6.30820 | 2959 ft | 163 kts | 311° |
| 2026-04-23 13:22 | 46.15004 | 6.29563 | 2954 ft | 158 kts | 311° |
| 2026-04-23 13:22 | 46.15690 | 6.28348 | 2947 ft | 155 kts | 311° |
| 2026-04-23 13:22 | 46.16366 | 6.27153 | 2952 ft | 152 kts | 312° |
| 2026-04-23 13:23 | 46.17035 | 6.25961 | 2945 ft | 151 kts | 312° |
| 2026-04-23 13:23 | 46.17692 | 6.24789 | 2944 ft | 149 kts | 311° |
| 2026-04-23 13:23 | 46.18311 | 6.23670 | 2935 ft | 131 kts | 308° |
| 2026-04-23 13:23 | 46.18653 | 6.22581 | 2794 ft | 111 kts | 289° |
| 2026-04-23 13:24 | 46.18950 | 6.21679 | 2716 ft | 88 kts | 338° |
| 2026-04-23 13:24 | 46.19459 | 6.22024 | 2440 ft | 89 kts | 52° |
| 2026-04-23 13:24 | 46.19810 | 6.22722 | 2382 ft | 84 kts | 52° |
| 2026-04-23 13:24 | 46.20161 | 6.23394 | 2300 ft | 82 kts | 59° |
| 2026-04-23 13:25 | 46.20121 | 6.24200 | 2045 ft | 93 kts | 110° |
| 2026-04-23 13:25 | 46.19844 | 6.24987 | 1887 ft | 90 kts | 109° |
| 2026-04-23 13:25 | 46.19562 | 6.25784 | 1709 ft | 88 kts | 111° |
| 2026-04-23 13:25 | 46.19301 | 6.26538 | 1594 ft | 72 kts | 112° |
| 2026-04-23 13:26 | 46.19150 | 6.26968 | 1604 ft | 21 kts | 118° |
| 2026-04-23 13:26 | 46.19146 | 6.27058 | 1606 ft | 8 kts | 50° |
| 2026-04-23 13:26 | 46.19183 | 6.27086 | 1606 ft | 0 kts | 19° |
| 2026-04-23 13:26 | 46.19197 | 6.27093 | 1606 ft | 0 kts | 16° |
| 2026-04-23 13:30 | 46.19201 | 6.27094 | 1606 ft | 1 kts | 1° |
| 2026-04-23 13:30 | 46.19226 | 6.27027 | 1605 ft | 12 kts | 300° |
| 2026-04-23 13:30 | 46.19281 | 6.26891 | 1601 ft | 17 kts | 292° |
| 2026-04-23 13:31 | 46.19342 | 6.26716 | 1596 ft | 20 kts | 296° |
| 2026-04-23 13:31 | 46.19429 | 6.26562 | 1593 ft | 19 kts | 331° |
| 2026-04-23 13:31 | 46.19527 | 6.26487 | 1591 ft | 12 kts | 332° |
| 2026-04-23 13:31 | 46.19580 | 6.26469 | 1591 ft | 6 kts | 31° |
| 2026-04-23 13:32 | 46.19596 | 6.26505 | 1592 ft | 0 kts | 62° |
| 2026-04-23 13:32 | 46.19595 | 6.26505 | 1592 ft | 0 kts | 62° |
| 2026-04-23 13:32 | 46.19595 | 6.26504 | 1592 ft | 0 kts | 64° |
| 2026-04-23 13:33 | 46.19596 | 6.26505 | 1592 ft | 0 kts | 65° |